createdAt,value
2022-11-24T14:48:29.496Z,66.39
2022-11-24T14:51:23.378Z,66.46
2022-11-24T14:54:29.028Z,66.22
2022-11-24T14:57:26.912Z,66.36
2022-11-24T15:00:24.867Z,66.38
2022-11-24T15:03:18.740Z,66.44
2022-11-24T15:06:19.866Z,66.45
2022-11-24T15:09:19.719Z,66.43
2022-11-24T15:12:12.830Z,66.40
2022-11-24T15:15:15.698Z,66.57
2022-11-24T15:18:05.887Z,66.61
2022-11-24T15:20:53.935Z,66.36
2022-11-24T15:23:42.959Z,66.34
2022-11-24T15:26:36.738Z,66.56
2022-11-24T15:29:27.788Z,66.79
2022-11-24T15:32:16.670Z,66.72
2022-11-24T15:35:04.682Z,66.62
2022-11-24T15:37:52.548Z,66.37
2022-11-24T15:40:42.523Z,66.56
2022-11-24T15:43:42.748Z,66.66
2022-11-24T15:46:37.833Z,66.42
2022-11-24T15:49:25.642Z,66.42
2022-11-24T15:52:17.509Z,66.38
2022-11-24T15:55:05.870Z,66.47
2022-11-24T15:57:53.536Z,66.51
2022-11-24T16:00:42.358Z,66.45
2022-11-24T16:03:47.543Z,66.26
2022-11-24T16:06:36.041Z,66.34
2022-11-24T16:09:23.646Z,66.32
2022-11-24T16:12:11.255Z,66.32
2022-11-24T16:14:58.793Z,66.35
2022-11-24T16:17:46.670Z,66.37
2022-11-24T16:20:36.135Z,66.18
2022-11-24T16:23:23.978Z,66.40
2022-11-24T16:26:11.583Z,66.12
2022-11-24T16:28:59.211Z,66.18
2022-11-24T16:31:47.653Z,66.34
2022-11-24T16:34:35.438Z,66.33
2022-11-24T16:37:23.256Z,66.25
2022-11-24T16:40:19.866Z,66.29
2022-11-24T16:43:07.245Z,66.28
2022-11-24T16:46:28.954Z,66.31
2022-11-24T16:49:17.080Z,66.08
2022-11-24T16:52:05.062Z,66.18
2022-11-24T16:54:52.661Z,66.13
2022-11-24T16:57:40.599Z,66.02
2022-11-24T17:00:28.360Z,66.19
2022-11-24T17:03:16.042Z,66.24
2022-11-24T17:06:05.613Z,66.28
2022-11-24T17:08:55.618Z,66.28
2022-11-24T17:11:43.242Z,66.33
2022-11-24T17:14:30.898Z,66.60
2022-11-24T17:17:18.517Z,66.40
2022-11-24T17:20:06.926Z,66.42
2022-11-24T17:22:54.613Z,66.31
2022-11-24T17:25:42.182Z,66.27
2022-11-24T17:28:30.228Z,66.40
2022-11-24T17:31:35.782Z,66.40
2022-11-24T17:34:23.569Z,66.25
2022-11-24T17:37:11.157Z,66.48
2022-11-24T17:40:26.962Z,66.32
2022-11-24T17:43:17.095Z,66.41
2022-11-24T17:46:05.957Z,66.35
2022-11-24T17:48:54.487Z,66.17
2022-11-24T17:51:42.468Z,66.22
2022-11-24T17:54:46.620Z,66.33
2022-11-24T17:57:35.281Z,66.50
2022-11-24T18:00:23.364Z,66.63
2022-11-24T18:03:11.527Z,66.53
2022-11-24T18:06:07.061Z,66.25
2022-11-24T18:08:57.535Z,66.33
2022-11-24T18:11:45.442Z,66.34
2022-11-24T18:14:33.671Z,66.50
2022-11-24T18:17:21.711Z,66.34
2022-11-24T18:20:09.915Z,66.41
2022-11-24T18:23:05.661Z,66.27
2022-11-24T18:26:03.906Z,66.30
2022-11-24T18:30:01.857Z,66.35
2022-11-24T18:32:38.913Z,66.32
2022-11-24T18:35:27.093Z,66.21
2022-11-24T18:38:15.154Z,66.29
2022-11-24T18:41:04.340Z,66.39
2022-11-24T18:43:52.560Z,66.10
2022-11-24T18:46:40.334Z,66.09
2022-11-24T18:49:38.168Z,66.45
2022-11-24T18:52:25.975Z,66.36
2022-11-24T18:55:16.010Z,66.18
2022-11-24T18:58:33.772Z,66.18
2022-11-24T19:01:25.099Z,66.17
2022-11-24T19:04:20.224Z,66.02
2022-11-24T19:07:09.073Z,66.12
2022-11-24T19:10:21.963Z,66.11
2022-11-24T19:13:51.183Z,66.00
2022-11-24T19:18:05.564Z,66.09
2022-11-24T19:20:56.681Z,66.10
2022-11-24T19:23:44.795Z,66.00
2022-11-24T19:26:36.721Z,66.01
2022-11-24T19:29:24.678Z,66.04
2022-11-24T19:32:13.087Z,66.18
2022-11-24T19:35:04.886Z,66.23
2022-11-24T19:37:57.746Z,66.06
2022-11-24T19:40:51.065Z,66.04
2022-11-24T19:43:39.727Z,66.17
2022-11-24T19:46:42.356Z,66.20
2022-11-24T19:49:34.176Z,66.01
2022-11-24T19:52:27.477Z,66.12
2022-11-24T19:55:18.565Z,66.02
2022-11-24T19:58:09.999Z,65.92
2022-11-24T20:01:16.752Z,66.11
2022-11-24T20:04:09.475Z,65.98
2022-11-24T20:06:57.089Z,66.06
2022-11-24T20:09:44.686Z,66.12
2022-11-24T20:12:33.283Z,66.11
2022-11-24T20:15:20.927Z,65.97
2022-11-24T20:18:08.643Z,66.00
2022-11-24T20:21:05.522Z,65.82
2022-11-24T20:23:55.860Z,66.08
2022-11-24T20:26:46.946Z,65.92
2022-11-24T20:29:34.611Z,66.00
2022-11-24T20:32:22.255Z,65.98
2022-11-24T20:35:14.988Z,66.09
2022-11-24T20:38:05.579Z,65.96
2022-11-24T20:40:53.600Z,66.16
2022-11-24T20:43:42.771Z,65.97
2022-11-24T20:46:32.358Z,65.93
2022-11-24T20:49:21.895Z,65.92
2022-11-24T20:52:09.555Z,65.94
2022-11-24T20:54:58.331Z,65.91
2022-11-24T20:57:45.936Z,65.94
2022-11-24T21:00:33.542Z,66.07
2022-11-24T21:03:21.155Z,66.01
2022-11-24T21:06:09.700Z,65.73
2022-11-24T21:09:03.414Z,66.22
2022-11-24T21:11:51.713Z,66.01
2022-11-24T21:14:39.767Z,66.11
2022-11-24T21:17:27.613Z,66.05
2022-11-24T21:20:15.448Z,65.69
2022-11-24T21:23:03.825Z,65.83
2022-11-24T21:25:51.432Z,65.94
2022-11-24T21:28:39.137Z,66.12
2022-11-24T21:31:26.750Z,65.97
2022-11-24T21:34:16.238Z,66.01
2022-11-24T21:37:03.892Z,65.96
2022-11-24T21:39:51.553Z,65.81
2022-11-24T21:42:39.098Z,65.98
2022-11-24T21:45:29.209Z,65.67
2022-11-24T21:48:16.769Z,65.89
2022-11-24T21:51:07.077Z,65.81
2022-11-24T21:53:54.642Z,65.80
2022-11-24T21:56:42.177Z,65.88
2022-11-24T21:59:29.812Z,65.91
2022-11-24T22:02:17.467Z,65.97
2022-11-24T22:05:05.475Z,65.98
2022-11-24T22:07:53.180Z,66.05
2022-11-24T22:10:40.825Z,66.05
2022-11-24T22:13:28.563Z,65.97
2022-11-24T22:16:24.088Z,66.09
2022-11-24T22:19:11.922Z,66.17
2022-11-24T22:21:59.585Z,66.20
2022-11-24T22:24:47.234Z,66.11
2022-11-24T22:27:34.815Z,66.09
2022-11-24T22:30:22.851Z,66.08
2022-11-24T22:33:10.475Z,66.03
2022-11-24T22:35:59.735Z,66.02
2022-11-24T22:38:48.397Z,66.02
2022-11-24T22:41:36.117Z,65.93
2022-11-24T22:44:23.688Z,66.11
2022-11-24T22:47:11.307Z,66.26
2022-11-24T22:49:58.993Z,66.11
2022-11-24T22:52:46.608Z,66.10
2022-11-24T22:55:35.541Z,65.95
2022-11-24T22:58:23.173Z,66.08
2022-11-24T23:01:15.034Z,66.07
2022-11-24T23:04:03.899Z,65.98
2022-11-24T23:06:51.863Z,66.03
2022-11-24T23:09:39.509Z,66.05
2022-11-24T23:12:27.127Z,66.14
2022-11-24T23:15:14.926Z,66.32
2022-11-24T23:18:02.657Z,66.32
2022-11-24T23:20:50.258Z,66.51
2022-11-24T23:23:37.849Z,66.30
2022-11-24T23:26:34.510Z,66.44
2022-11-24T23:29:21.948Z,66.07
2022-11-24T23:32:09.580Z,66.16
2022-11-24T23:34:57.257Z,65.92
2022-11-24T23:38:06.644Z,66.20
2022-11-24T23:40:55.700Z,66.24
2022-11-24T23:43:43.868Z,66.24
2022-11-24T23:46:31.538Z,66.20
2022-11-24T23:49:19.219Z,66.22
2022-11-24T23:52:07.024Z,66.34
2022-11-24T23:54:54.645Z,66.31
2022-11-24T23:57:42.247Z,66.21
